Time;durP1;ratioP1;P1;durP2;ratioP2;P2;SDS_P1;SDS_P2;PMS_P1;PMS_P2;Temp;Humidity;BMP_temperature;BMP_pressure;BME280_temperature;BME280_humidity;BME280_pressure;Samples;Min_cycle;Max_cycle;Signal;HPM_P1;HPM_P2
2023/10/03 00:02:05;;;;;;;7.10;5.05;;;;;;;;;;10291025;28;20069;-66
2023/10/03 00:07:03;;;;;;;10.10;4.68;;;;;;;;;;10290980;28;20072;-67
2023/10/03 00:12:05;;;;;;;9.15;4.53;;;;;;;;;;10288762;28;20091;-67
2023/10/03 00:17:05;;;;;;;9.02;5.07;;;;;;;;;;10289180;28;20079;-66
2023/10/03 00:22:04;;;;;;;10.68;5.18;;;;;;;;;;10291069;28;20065;-67
2023/10/03 00:27:04;;;;;;;11.90;5.72;;;;;;;;;;10291691;28;20087;-67
2023/10/03 00:32:03;;;;;;;15.95;4.82;;;;;;;;;;10288045;28;20072;-66
2023/10/03 00:37:03;;;;;;;11.73;4.80;;;;;;;;;;10290604;28;20077;-67
2023/10/03 00:42:05;;;;;;;15.75;4.93;;;;;;;;;;10289397;28;20450;-66
2023/10/03 00:47:06;;;;;;;10.55;5.78;;;;;;;;;;10288654;28;20065;-67
2023/10/03 00:52:06;;;;;;;7.75;5.15;;;;;;;;;;10288513;28;20072;-67
2023/10/03 00:57:05;;;;;;;6.95;4.97;;;;;;;;;;10289030;28;20072;-67
2023/10/03 01:02:06;;;;;;;12.48;5.10;;;;;;;;;;10290533;28;20473;-67
2023/10/03 01:07:07;;;;;;;12.18;5.50;;;;;;;;;;10285286;28;20109;-67
2023/10/03 01:12:06;;;;;;;9.63;5.40;;;;;;;;;;10294003;28;20080;-67
2023/10/03 01:17:06;;;;;;;10.07;4.65;;;;;;;;;;10294892;28;20080;-67
2023/10/03 01:22:06;;;;;;;12.80;5.03;;;;;;;;;;10296651;28;20520;-67
2023/10/03 01:27:06;;;;;;;12.88;5.95;;;;;;;;;;10295067;28;20065;-66
2023/10/03 01:32:04;;;;;;;14.85;5.53;;;;;;;;;;10296807;28;20041;-68
2023/10/03 01:37:03;;;;;;;15.95;5.78;;;;;;;;;;10294013;28;20079;-65
2023/10/03 01:42:03;;;;;;;11.75;4.30;;;;;;;;;;10296300;28;20085;-67
2023/10/03 01:47:03;;;;;;;11.20;4.35;;;;;;;;;;10296107;28;20530;-66
2023/10/03 01:52:02;;;;;;;10.30;4.70;;;;;;;;;;10295142;28;20076;-66
2023/10/03 01:57:01;;;;;;;12.43;4.15;;;;;;;;;;10294189;28;20084;-66
2023/10/03 02:02:00;;;;;;;12.70;4.90;;;;;;;;;;10295784;28;20528;-66
2023/10/03 02:07:00;;;;;;;9.65;4.43;;;;;;;;;;10304690;28;20075;-67
2023/10/03 02:11:59;;;;;;;13.93;5.68;;;;;;;;;;10294336;28;20069;-67
2023/10/03 02:16:57;;;;;;;12.95;4.30;;;;;;;;;;10293293;28;20073;-67
2023/10/03 02:21:59;;;;;;;11.07;4.30;;;;;;;;;;10291539;28;20049;-66
2023/10/03 02:27:01;;;;;;;12.88;4.80;;;;;;;;;;10299996;28;20056;-67
2023/10/03 02:32:01;;;;;;;9.00;4.65;;;;;;;;;;10292469;28;20052;-66
2023/10/03 02:36:59;;;;;;;11.77;3.97;;;;;;;;;;10291285;28;20052;-66
2023/10/03 02:41:59;;;;;;;14.20;5.50;;;;;;;;;;10301076;28;20079;-67
2023/10/03 02:46:58;;;;;;;10.73;4.95;;;;;;;;;;10303028;28;20060;-67
2023/10/03 02:51:59;;;;;;;7.90;4.45;;;;;;;;;;10299566;28;20525;-67
2023/10/03 02:56:59;;;;;;;9.85;4.22;;;;;;;;;;10293036;28;20072;-66
2023/10/03 03:01:57;;;;;;;11.70;4.45;;;;;;;;;;10292493;28;20065;-66
2023/10/03 03:07:02;;;;;;;9.95;4.75;;;;;;;;;;10289783;28;20052;-65
2023/10/03 03:12:06;;;;;;;9.45;4.32;;;;;;;;;;10292336;28;20077;-68
2023/10/03 03:17:13;;;;;;;11.20;4.55;;;;;;;;;;10292719;28;20523;-67
2023/10/03 03:22:15;;;;;;;15.18;5.25;;;;;;;;;;10289097;28;20077;-67
2023/10/03 03:27:16;;;;;;;6.95;4.50;;;;;;;;;;10292421;28;20037;-67
2023/10/03 03:32:15;;;;;;;7.35;4.63;;;;;;;;;;10286607;28;20539;-66
2023/10/03 03:37:21;;;;;;;12.70;4.55;;;;;;;;;;10287449;28;20069;-67
2023/10/03 03:42:22;;;;;;;10.15;4.95;;;;;;;;;;10287167;28;20088;-66
2023/10/03 03:47:21;;;;;;;11.05;4.90;;;;;;;;;;10290043;28;20079;-66
2023/10/03 03:52:21;;;;;;;8.30;4.60;;;;;;;;;;10287048;28;20072;-67
2023/10/03 03:57:21;;;;;;;10.40;3.97;;;;;;;;;;10291719;28;20041;-67
2023/10/03 04:02:19;;;;;;;13.43;5.53;;;;;;;;;;10291156;28;20073;-65
2023/10/03 04:07:17;;;;;;;7.93;4.70;;;;;;;;;;10290528;28;20071;-67
2023/10/03 04:12:16;;;;;;;9.82;4.28;;;;;;;;;;10288985;28;20477;-64
2023/10/03 04:17:15;;;;;;;9.63;4.25;;;;;;;;;;10291578;28;20068;-66
2023/10/03 04:22:14;;;;;;;17.98;5.47;;;;;;;;;;10290758;28;20076;-66
2023/10/03 04:27:13;;;;;;;11.73;4.93;;;;;;;;;;10290991;28;20548;-66
2023/10/03 04:32:11;;;;;;;9.20;4.20;;;;;;;;;;10289030;28;20564;-66
2023/10/03 04:37:11;;;;;;;10.38;5.50;;;;;;;;;;10288039;28;20072;-66
2023/10/03 04:42:09;;;;;;;16.77;4.90;;;;;;;;;;10289860;28;20088;-65
2023/10/03 04:47:11;;;;;;;8.43;4.90;;;;;;;;;;10286466;28;20073;-66
2023/10/03 04:52:11;;;;;;;11.40;4.78;;;;;;;;;;10291036;28;20108;-66
2023/10/03 04:57:11;;;;;;;10.25;4.13;;;;;;;;;;10289636;28;20545;-65
2023/10/03 05:02:10;;;;;;;9.55;5.07;;;;;;;;;;10291474;28;20520;-66
2023/10/03 05:07:10;;;;;;;16.30;4.97;;;;;;;;;;10292677;28;20421;-66
2023/10/03 05:12:10;;;;;;;13.05;5.05;;;;;;;;;;10292000;28;20068;-66
2023/10/03 05:17:08;;;;;;;10.70;5.43;;;;;;;;;;10296207;28;20079;-64
2023/10/03 05:22:08;;;;;;;12.02;4.55;;;;;;;;;;10296924;28;20091;-64
2023/10/03 05:27:07;;;;;;;7.70;4.47;;;;;;;;;;10293320;28;20061;-65
2023/10/03 05:32:07;;;;;;;12.15;4.55;;;;;;;;;;10295210;28;20076;-64
2023/10/03 05:37:05;;;;;;;14.10;4.68;;;;;;;;;;10295861;28;20076;-65
2023/10/03 05:42:03;;;;;;;16.27;4.93;;;;;;;;;;10296144;28;20075;-65
2023/10/03 05:47:01;;;;;;;10.50;4.90;;;;;;;;;;10294527;28;20072;-64
2023/10/03 05:52:01;;;;;;;6.40;4.80;;;;;;;;;;10293589;28;20071;-64
2023/10/03 05:56:59;;;;;;;8.30;4.68;;;;;;;;;;10295653;28;20553;-64
2023/10/03 06:01:58;;;;;;;9.10;4.35;;;;;;;;;;10295353;28;20079;-65
2023/10/03 06:06:56;;;;;;;11.98;6.05;;;;;;;;;;10301481;28;20091;-65
2023/10/03 06:11:56;;;;;;;9.38;4.68;;;;;;;;;;10293777;28;20091;-65
2023/10/03 06:16:55;;;;;;;9.05;5.28;;;;;;;;;;10292262;28;20081;-66
2023/10/03 06:21:53;;;;;;;9.57;4.60;;;;;;;;;;10294091;28;20072;-65
2023/10/03 06:26:52;;;;;;;8.98;4.43;;;;;;;;;;10291498;28;20083;-66
2023/10/03 06:31:52;;;;;;;22.92;7.03;;;;;;;;;;10301084;28;20397;-66
2023/10/03 06:36:50;;;;;;;15.48;6.93;;;;;;;;;;10293596;28;20084;-67
2023/10/03 06:41:49;;;;;;;33.58;7.82;;;;;;;;;;10290832;28;20115;-67
2023/10/03 06:46:50;;;;;;;20.30;7.07;;;;;;;;;;10291503;28;20470;-67
2023/10/03 06:51:50;;;;;;;25.38;6.93;;;;;;;;;;10283215;28;20068;-67
2023/10/03 06:56:49;;;;;;;19.10;7.05;;;;;;;;;;10288770;28;20536;-67
2023/10/03 07:01:48;;;;;;;16.95;8.88;;;;;;;;;;10291601;28;20076;-66
2023/10/03 07:06:50;;;;;;;22.27;9.23;;;;;;;;;;10293043;28;20482;-67
2023/10/03 07:11:49;;;;;;;15.45;8.93;;;;;;;;;;10288770;28;20087;-67
2023/10/03 07:16:48;;;;;;;27.42;16.50;;;;;;;;;;10292286;28;20081;-66
2023/10/03 07:21:48;;;;;;;31.23;16.55;;;;;;;;;;10292889;28;20095;-67
2023/10/03 07:26:46;;;;;;;27.48;14.82;;;;;;;;;;10291276;28;20064;-67
2023/10/03 07:31:45;;;;;;;24.27;12.27;;;;;;;;;;10291545;28;20080;-67
2023/10/03 07:36:43;;;;;;;15.88;8.05;;;;;;;;;;10289443;28;20072;-67
2023/10/03 07:41:43;;;;;;;20.67;6.25;;;;;;;;;;10291561;28;20553;-69
2023/10/03 07:46:41;;;;;;;17.92;7.53;;;;;;;;;;10287508;28;20072;-67
2023/10/03 07:51:41;;;;;;;15.55;7.55;;;;;;;;;;10290039;28;20110;-67
2023/10/03 07:56:42;;;;;;;23.83;9.45;;;;;;;;;;10292455;28;20100;-67
2023/10/03 08:01:42;;;;;;;14.90;7.85;;;;;;;;;;10288698;28;20072;-67
2023/10/03 08:06:57;;;;;;;26.75;8.75;;;;;;;;;;10289811;28;20101;-66
2023/10/03 08:11:56;;;;;;;22.38;8.15;;;;;;;;;;10289360;28;20072;-67
2023/10/03 08:16:56;;;;;;;37.80;10.10;;;;;;;;;;10290684;28;20076;-67
2023/10/03 08:21:55;;;;;;;18.63;7.90;;;;;;;;;;10295559;28;20079;-67
2023/10/03 08:26:53;;;;;;;47.58;8.43;;;;;;;;;;10296731;28;20066;-67
2023/10/03 08:31:57;;;;;;;16.42;7.82;;;;;;;;;;10298541;28;20091;-68
2023/10/03 08:36:59;;;;;;;18.33;6.72;;;;;;;;;;10295750;28;20084;-67
2023/10/03 08:42:11;;;;;;;20.75;5.22;;;;;;;;;;10297233;28;20072;-67
2023/10/03 08:47:11;;;;;;;17.13;6.05;;;;;;;;;;10296929;28;20077;-67
2023/10/03 08:52:12;;;;;;;18.42;4.88;;;;;;;;;;10297443;28;20084;-67
2023/10/03 08:57:10;;;;;;;19.83;5.22;;;;;;;;;;10297065;28;20497;-68
2023/10/03 09:02:11;;;;;;;12.60;5.70;;;;;;;;;;10297150;28;20466;-67
2023/10/03 09:07:12;;;;;;;13.07;5.72;;;;;;;;;;10296581;28;20045;-66
2023/10/03 09:12:12;;;;;;;15.82;5.53;;;;;;;;;;10296001;28;20068;-67
2023/10/03 09:17:21;;;;;;;10.60;5.05;;;;;;;;;;10295780;28;20045;-68
2023/10/03 09:22:30;;;;;;;8.07;4.53;;;;;;;;;;10296308;28;20068;-67
2023/10/03 09:27:30;;;;;;;10.50;4.88;;;;;;;;;;10297645;28;20591;-67
2023/10/03 09:32:38;;;;;;;10.30;4.35;;;;;;;;;;10295195;28;20514;-67
2023/10/03 09:37:43;;;;;;;9.48;4.57;;;;;;;;;;10293525;28;20072;-67
2023/10/03 09:42:48;;;;;;;9.93;4.03;;;;;;;;;;10294885;28;20083;-66
2023/10/03 09:47:46;;;;;;;17.30;6.15;;;;;;;;;;10295440;28;20068;-67
2023/10/03 09:52:50;;;;;;;9.02;4.88;;;;;;;;;;10296302;28;20067;-68
2023/10/03 09:57:51;;;;;;;9.40;4.78;;;;;;;;;;10292700;28;20076;-66
2023/10/03 10:02:54;;;;;;;7.97;4.57;;;;;;;;;;10294820;28;20072;-68
2023/10/03 10:08:06;;;;;;;10.55;5.00;;;;;;;;;;10294727;28;20143;-67
2023/10/03 10:13:05;;;;;;;11.73;4.70;;;;;;;;;;10291223;28;20080;-67
2023/10/03 10:18:10;;;;;;;13.38;6.75;;;;;;;;;;10292498;28;20483;-66
2023/10/03 10:23:17;;;;;;;11.48;5.07;;;;;;;;;;10292814;28;20481;-66
2023/10/03 10:28:20;;;;;;;7.13;4.30;;;;;;;;;;10295614;28;20076;-67
2023/10/03 10:33:25;;;;;;;7.18;4.93;;;;;;;;;;10294937;28;20071;-66
2023/10/03 10:38:52;;;;;;;7.15;4.50;;;;;;;;;;10290974;28;20072;-67
2023/10/03 10:44:06;;;;;;;10.07;4.80;;;;;;;;;;10291343;28;20076;-67
2023/10/03 10:49:06;;;;;;;7.18;4.70;;;;;;;;;;10291696;28;20120;-67
2023/10/03 10:54:06;;;;;;;6.07;5.10;;;;;;;;;;10289000;28;20078;-67
2023/10/03 10:59:10;;;;;;;7.60;4.65;;;;;;;;;;10284696;28;20479;-67
2023/10/03 11:04:23;;;;;;;9.43;4.85;;;;;;;;;;10289385;28;20079;-67
2023/10/03 11:09:23;;;;;;;10.32;5.85;;;;;;;;;;10292515;28;20075;-66
2023/10/03 11:14:29;;;;;;;7.40;5.38;;;;;;;;;;10291749;28;20087;-67
2023/10/03 11:19:30;;;;;;;8.93;5.15;;;;;;;;;;10290802;28;20053;-67
2023/10/03 11:24:30;;;;;;;24.20;17.40;;;;;;;;;;10290826;28;20072;-67
2023/10/03 11:29:38;;;;;;;10.02;5.13;;;;;;;;;;10290439;28;20072;-68
2023/10/03 11:34:39;;;;;;;13.48;5.78;;;;;;;;;;10289985;28;20071;-67
2023/10/03 11:39:39;;;;;;;10.70;4.70;;;;;;;;;;10288565;28;20072;-68
2023/10/03 11:44:39;;;;;;;8.27;5.43;;;;;;;;;;10285163;28;20076;-67
2023/10/03 11:49:38;;;;;;;10.63;5.35;;;;;;;;;;10288370;28;20076;-67
2023/10/03 11:54:36;;;;;;;9.02;5.68;;;;;;;;;;10290222;28;20075;-67
2023/10/03 11:59:36;;;;;;;6.93;4.93;;;;;;;;;;10290208;28;20065;-67
2023/10/03 12:04:34;;;;;;;12.52;5.65;;;;;;;;;;10290650;28;20060;-68
2023/10/03 12:09:33;;;;;;;11.43;6.47;;;;;;;;;;10291083;28;20064;-67
2023/10/03 12:14:31;;;;;;;9.93;5.53;;;;;;;;;;10296141;28;20162;-67
2023/10/03 12:19:32;;;;;;;11.57;6.05;;;;;;;;;;10290962;28;20130;-68
2023/10/03 12:24:30;;;;;;;14.35;5.82;;;;;;;;;;10290364;28;20073;-67
2023/10/03 12:29:32;;;;;;;12.15;5.90;;;;;;;;;;10290774;28;20076;-67
2023/10/03 12:34:32;;;;;;;11.23;5.97;;;;;;;;;;10290091;28;20072;-68
2023/10/03 12:39:31;;;;;;;8.93;6.45;;;;;;;;;;10290435;28;20076;-67
2023/10/03 12:44:30;;;;;;;13.07;6.80;;;;;;;;;;10290295;28;20573;-67
2023/10/03 12:49:29;;;;;;;8.27;5.57;;;;;;;;;;10289848;28;20083;-67
2023/10/03 12:54:28;;;;;;;7.60;5.28;;;;;;;;;;10289417;28;20526;-68
2023/10/03 12:59:27;;;;;;;10.50;5.90;;;;;;;;;;10289576;28;20060;-67
2023/10/03 13:04:27;;;;;;;10.18;5.32;;;;;;;;;;10289974;28;20069;-67
2023/10/03 13:09:27;;;;;;;6.93;5.45;;;;;;;;;;10295413;28;20513;-67
2023/10/03 13:14:27;;;;;;;11.35;6.38;;;;;;;;;;10293951;28;20091;-67
2023/10/03 13:19:25;;;;;;;8.25;6.13;;;;;;;;;;10293767;28;20457;-68
2023/10/03 13:24:25;;;;;;;12.80;6.03;;;;;;;;;;10293073;28;20072;-67
2023/10/03 13:29:23;;;;;;;14.10;6.47;;;;;;;;;;10296801;28;20096;-67
2023/10/03 13:34:25;;;;;;;12.02;5.65;;;;;;;;;;10296266;28;20076;-66
2023/10/03 13:39:26;;;;;;;8.15;5.15;;;;;;;;;;10295222;28;20098;-66
2023/10/03 13:44:25;;;;;;;13.48;6.18;;;;;;;;;;10296589;28;20076;-66
2023/10/03 13:49:25;;;;;;;6.68;4.80;;;;;;;;;;10295279;28;20072;-66
2023/10/03 13:54:24;;;;;;;19.52;5.75;;;;;;;;;;10294045;28;20045;-66
2023/10/03 13:59:22;;;;;;;7.18;5.65;;;;;;;;;;10295603;28;20187;-66
2023/10/03 14:04:20;;;;;;;12.73;4.90;;;;;;;;;;10295090;28;20068;-66
2023/10/03 14:09:22;;;;;;;11.95;5.22;;;;;;;;;;10294073;28;20470;-66
2023/10/03 14:14:20;;;;;;;17.23;6.32;;;;;;;;;;10294244;28;20087;-66
2023/10/03 14:19:19;;;;;;;8.80;5.43;;;;;;;;;;10295000;28;20079;-67
2023/10/03 14:24:17;;;;;;;9.70;5.85;;;;;;;;;;10289311;28;20079;-67
2023/10/03 14:29:20;;;;;;;9.18;5.30;;;;;;;;;;10293372;28;20064;-66
2023/10/03 14:34:18;;;;;;;18.63;7.00;;;;;;;;;;10293716;28;20083;-66
2023/10/03 14:39:24;;;;;;;14.02;5.60;;;;;;;;;;10294488;28;20086;-66
2023/10/03 14:44:25;;;;;;;13.40;5.38;;;;;;;;;;10292861;28;20086;-67
2023/10/03 14:49:24;;;;;;;9.77;5.30;;;;;;;;;;10293051;28;20682;-67
2023/10/03 14:54:23;;;;;;;18.08;7.07;;;;;;;;;;10291690;28;20079;-67
2023/10/03 14:59:24;;;;;;;13.15;6.38;;;;;;;;;;10292097;28;20112;-67
2023/10/03 15:04:25;;;;;;;11.35;5.47;;;;;;;;;;10290766;28;20079;-68
2023/10/03 15:09:23;;;;;;;11.90;6.00;;;;;;;;;;10292283;28;20075;-67
2023/10/03 15:14:22;;;;;;;10.98;5.72;;;;;;;;;;10299020;28;20084;-67
2023/10/03 15:19:25;;;;;;;14.20;6.35;;;;;;;;;;10289438;28;20075;-67
2023/10/03 15:24:24;;;;;;;17.45;7.45;;;;;;;;;;10289325;28;20072;-68
2023/10/03 15:29:22;;;;;;;13.05;6.93;;;;;;;;;;10282753;28;21064;-68
2023/10/03 15:34:27;;;;;;;13.50;6.90;;;;;;;;;;10284807;28;20068;-67
2023/10/03 15:39:27;;;;;;;20.05;7.45;;;;;;;;;;10289991;28;20553;-68
2023/10/03 15:44:25;;;;;;;16.10;7.10;;;;;;;;;;10288240;28;20083;-67
2023/10/03 15:49:24;;;;;;;25.30;7.45;;;;;;;;;;10290601;28;20056;-67
2023/10/03 15:54:22;;;;;;;23.08;6.95;;;;;;;;;;10288630;28;20080;-67
2023/10/03 15:59:23;;;;;;;13.45;6.65;;;;;;;;;;10289980;28;20060;-66
2023/10/03 16:04:24;;;;;;;13.00;6.40;;;;;;;;;;10282739;28;20072;-67
2023/10/03 16:09:25;;;;;;;16.98;6.38;;;;;;;;;;10278771;28;20070;-67
2023/10/03 16:14:26;;;;;;;14.23;6.95;;;;;;;;;;10284124;28;20080;-67
2023/10/03 16:19:25;;;;;;;15.65;6.22;;;;;;;;;;10284757;28;20072;-65
2023/10/03 16:24:23;;;;;;;12.07;6.15;;;;;;;;;;10281071;28;20506;-66
2023/10/03 16:29:21;;;;;;;10.70;7.03;;;;;;;;;;10285076;28;20072;-65
2023/10/03 16:34:21;;;;;;;12.68;6.50;;;;;;;;;;10282197;28;20075;-66
2023/10/03 16:39:21;;;;;;;16.30;7.28;;;;;;;;;;10287506;28;20469;-68
2023/10/03 16:44:20;;;;;;;13.80;6.90;;;;;;;;;;10291339;28;20072;-69
2023/10/03 16:49:18;;;;;;;16.50;5.93;;;;;;;;;;10295951;28;20071;-69
2023/10/03 16:54:19;;;;;;;16.73;6.63;;;;;;;;;;10281695;28;20056;-69
2023/10/03 16:59:18;;;;;;;11.35;6.68;;;;;;;;;;10287024;28;20126;-69
2023/10/03 17:04:18;;;;;;;12.95;6.93;;;;;;;;;;10294628;28;20079;-69
2023/10/03 17:09:17;;;;;;;12.20;6.65;;;;;;;;;;10296893;28;20077;-69
2023/10/03 17:14:16;;;;;;;14.18;6.55;;;;;;;;;;10287673;28;20085;-69
2023/10/03 17:19:15;;;;;;;11.20;7.05;;;;;;;;;;10293256;28;20069;-68
2023/10/03 17:24:14;;;;;;;16.85;6.18;;;;;;;;;;10296276;28;20103;-69
2023/10/03 17:29:13;;;;;;;16.67;5.60;;;;;;;;;;10295608;28;20075;-69
2023/10/03 17:34:13;;;;;;;12.30;7.13;;;;;;;;;;10284692;28;20474;-69
2023/10/03 17:39:11;;;;;;;15.65;8.20;;;;;;;;;;10291250;28;20080;-69
2023/10/03 17:44:10;;;;;;;14.32;8.65;;;;;;;;;;10290818;28;20068;-69
2023/10/03 17:49:08;;;;;;;21.58;11.55;;;;;;;;;;10285047;28;20068;-69
2023/10/03 17:54:08;;;;;;;20.45;11.85;;;;;;;;;;10291923;28;20071;-69
2023/10/03 17:59:20;;;;;;;16.73;9.18;;;;;;;;;;10293786;28;20064;-70
2023/10/03 18:04:19;;;;;;;13.70;7.53;;;;;;;;;;10294722;28;20462;-70
2023/10/03 18:09:22;;;;;;;13.40;7.28;;;;;;;;;;10301723;28;20075;-70
2023/10/03 18:14:20;;;;;;;10.68;6.97;;;;;;;;;;10286389;28;20183;-70
2023/10/03 18:19:19;;;;;;;16.35;6.70;;;;;;;;;;10291503;28;20481;-68
2023/10/03 18:24:19;;;;;;;15.07;8.27;;;;;;;;;;10293656;28;20088;-68
2023/10/03 18:29:17;;;;;;;24.13;7.65;;;;;;;;;;10288870;28;20071;-70
2023/10/03 18:34:16;;;;;;;16.13;6.50;;;;;;;;;;10288865;28;20071;-70
2023/10/03 18:39:15;;;;;;;11.18;7.32;;;;;;;;;;10291083;28;20071;-70
2023/10/03 18:44:15;;;;;;;10.57;6.38;;;;;;;;;;10288705;28;20071;-69
2023/10/03 18:49:13;;;;;;;13.00;6.10;;;;;;;;;;10290371;28;20064;-70
2023/10/03 18:54:12;;;;;;;19.85;7.15;;;;;;;;;;10291376;28;20076;-69
2023/10/03 18:59:11;;;;;;;14.10;5.53;;;;;;;;;;10290149;28;20525;-70
2023/10/03 19:04:10;;;;;;;13.73;5.97;;;;;;;;;;10287426;28;20079;-69
2023/10/03 19:09:12;;;;;;;13.25;7.00;;;;;;;;;;10284409;28;20077;-69
2023/10/03 19:14:10;;;;;;;11.23;6.25;;;;;;;;;;10284043;28;20485;-69
2023/10/03 19:19:13;;;;;;;13.20;6.10;;;;;;;;;;10279389;28;20072;-70
2023/10/03 19:24:11;;;;;;;10.77;5.75;;;;;;;;;;10284938;28;20084;-70
2023/10/03 19:29:12;;;;;;;14.30;6.38;;;;;;;;;;10301516;28;20723;-71
2023/10/03 19:34:12;;;;;;;10.07;5.93;;;;;;;;;;10284676;28;20079;-72
2023/10/03 19:39:11;;;;;;;11.02;5.00;;;;;;;;;;10286691;28;20056;-71
2023/10/03 19:44:09;;;;;;;10.45;6.07;;;;;;;;;;10285693;28;20083;-71
2023/10/03 19:49:09;;;;;;;9.73;4.53;;;;;;;;;;10285841;28;20064;-71
2023/10/03 19:54:09;;;;;;;15.02;5.72;;;;;;;;;;10287184;28;20068;-70
2023/10/03 19:59:07;;;;;;;11.77;7.63;;;;;;;;;;10284788;28;20519;-71
2023/10/03 20:04:08;;;;;;;9.13;6.07;;;;;;;;;;10287997;28;20087;-70
2023/10/03 20:09:10;;;;;;;9.85;5.03;;;;;;;;;;10288922;28;20080;-70
2023/10/03 20:14:10;;;;;;;7.57;5.90;;;;;;;;;;10284581;28;20069;-70
2023/10/03 20:19:08;;;;;;;13.25;6.15;;;;;;;;;;10281517;28;20072;-69
2023/10/03 20:24:07;;;;;;;7.68;5.57;;;;;;;;;;10282432;28;20076;-70
2023/10/03 20:29:05;;;;;;;12.57;6.65;;;;;;;;;;10282676;28;20543;-70
2023/10/03 20:34:07;;;;;;;11.82;5.75;;;;;;;;;;10285088;28;20064;-71
2023/10/03 20:39:07;;;;;;;11.35;5.47;;;;;;;;;;10294259;28;20076;-71
2023/10/03 20:44:06;;;;;;;12.43;5.40;;;;;;;;;;10284225;28;20481;-70
2023/10/03 20:49:04;;;;;;;11.23;5.40;;;;;;;;;;10284594;28;20498;-70
2023/10/03 20:54:05;;;;;;;11.88;5.57;;;;;;;;;;10289628;28;20068;-69
2023/10/03 20:59:04;;;;;;;12.80;6.72;;;;;;;;;;10289743;28;20524;-69
2023/10/03 21:04:02;;;;;;;11.50;5.75;;;;;;;;;;10289893;28;20064;-69
2023/10/03 21:09:01;;;;;;;10.95;6.05;;;;;;;;;;10295862;28;20083;-68
2023/10/03 21:14:02;;;;;;;8.00;6.10;;;;;;;;;;10286799;28;20556;-70
2023/10/03 21:19:01;;;;;;;12.82;6.13;;;;;;;;;;10302649;28;20045;-70
2023/10/03 21:23:59;;;;;;;14.23;5.78;;;;;;;;;;10288851;28;20182;-70
2023/10/03 21:28:58;;;;;;;9.85;5.68;;;;;;;;;;10299154;28;20083;-70
2023/10/03 21:33:58;;;;;;;9.05;5.68;;;;;;;;;;10294807;28;20068;-70
2023/10/03 21:38:56;;;;;;;12.68;6.55;;;;;;;;;;10294848;28;20474;-69
2023/10/03 21:43:54;;;;;;;9.32;5.88;;;;;;;;;;10294650;28;20037;-70
2023/10/03 21:48:54;;;;;;;10.77;6.03;;;;;;;;;;10295311;28;20079;-70
2023/10/03 21:53:54;;;;;;;9.23;5.90;;;;;;;;;;10295104;28;20132;-69
2023/10/03 21:58:52;;;;;;;9.30;6.18;;;;;;;;;;10294338;28;20068;-69
2023/10/03 22:03:51;;;;;;;7.78;5.47;;;;;;;;;;10294716;28;20068;-69
2023/10/03 22:08:49;;;;;;;9.25;5.90;;;;;;;;;;10293065;28;20083;-69
2023/10/03 22:13:55;;;;;;;12.80;6.55;;;;;;;;;;10294132;28;20110;-69
2023/10/03 22:19:17;;;;;;;11.13;5.80;;;;;;;;;;10294199;28;20073;-71
2023/10/03 22:24:18;;;;;;;10.52;5.45;;;;;;;;;;10294379;28;20079;-69
2023/10/03 22:29:18;;;;;;;10.75;5.70;;;;;;;;;;10294940;28;20068;-70
2023/10/03 22:34:16;;;;;;;14.82;6.72;;;;;;;;;;10292323;28;20079;-69
2023/10/03 22:39:28;;;;;;;;;;;;;;;;;;;;;
2023/10/03 22:44:45;;;;;;;9.95;5.82;;;;;;;;;;10291937;28;20104;-69
2023/10/03 22:49:43;;;;;;;11.75;6.25;;;;;;;;;;10293288;28;20097;-69
2023/10/03 22:54:41;;;;;;;9.68;6.32;;;;;;;;;;10292310;28;20071;-68
2023/10/03 22:59:40;;;;;;;11.18;6.35;;;;;;;;;;10291080;28;20470;-69
2023/10/03 23:04:39;;;;;;;9.95;5.65;;;;;;;;;;10292644;28;20060;-69
2023/10/03 23:09:38;;;;;;;9.60;6.22;;;;;;;;;;10293299;28;20059;-70
2023/10/03 23:14:39;;;;;;;9.02;5.88;;;;;;;;;;10291913;28;20083;-70
2023/10/03 23:19:37;;;;;;;15.98;6.88;;;;;;;;;;10293066;28;20091;-69
2023/10/03 23:24:37;;;;;;;9.20;5.85;;;;;;;;;;10290758;28;20080;-69
2023/10/03 23:29:35;;;;;;;9.10;5.75;;;;;;;;;;10292078;28;20083;-69
2023/10/03 23:34:33;;;;;;;7.65;5.68;;;;;;;;;;10291920;28;20076;-69
2023/10/03 23:39:32;;;;;;;11.27;6.63;;;;;;;;;;10292434;28;20048;-69
2023/10/03 23:44:34;;;;;;;12.52;6.25;;;;;;;;;;10290939;28;20067;-69
2023/10/03 23:49:32;;;;;;;20.45;7.43;;;;;;;;;;10288803;28;20528;-68
2023/10/03 23:54:31;;;;;;;44.55;10.05;;;;;;;;;;10292478;28;20536;-69
2023/10/03 23:59:29;;;;;;;10.20;6.47;;;;;;;;;;10288530;28;20072;-69
